Sacul, Texas
Current Conditions -  °F | °C
As of 11:35 AM on Friday 31 Oct 2014 (Local Time) from KJSO Reporting Station
Clear Clear  
Wind Chill: 18°   Ceiling: Unl
Heat Index: 18°   Visibility: 10mi
Dew Point:   Wind: 10mph
Humidity: 48%   Direction: 360°N
Pressure: 30.26"   Gusts: 18mph
Location:  31.82°N, 94.92°W
Report Text: KJSO 311635Z AUTO 36009G16KT 10SM CLR 18/07 A3026 RMK AO2 T01820071
Loading
Personal Weather Stations






























Interactive Weather Map
Tropical Storm Tracking
New forecast layout! Learn more

10-Day Weather Forecast

Advertisements
Track Severe Weather on mobile